Time;durP1;ratioP1;P1;durP2;ratioP2;P2;SDS_P1;SDS_P2;PMS_P1;PMS_P2;Temp;Humidity;BMP_temperature;BMP_pressure;BME280_temperature;BME280_humidity;BME280_pressure;Samples;Min_cycle;Max_cycle;Signal;HPM_P1;HPM_P2
2021/07/10 00:00:08;;;;;;;;;;;;;;;22.58;59.48;101012.05;439087;119;923087;-77
2021/07/10 00:01:11;;;;;;;;;;;;;;;22.58;59.46;101009.27;439135;119;922809;-77
2021/07/10 00:02:15;;;;;;;;;;;;;;;22.58;59.44;101008.44;426708;122;922305;-77
2021/07/10 00:03:18;;;;;;;;;;;;;;;22.56;59.46;101000.38;440979;120;922637;-76
2021/07/10 00:04:22;;;;;;;;;;;;;;;22.55;59.44;101007.05;440652;119;922682;-78
2021/07/10 00:05:25;;;;;;;;;;;;;;;22.55;59.45;100995.12;440715;118;922703;-76
2021/07/10 00:06:28;;;;;;;;;;;;;;;22.54;59.43;101002.63;440458;117;922681;-75
2021/07/10 00:07:32;;;;;;;;;;;;;;;22.54;59.43;101002.63;440859;119;922729;-76
2021/07/10 00:08:36;;;;;;;;;;;;;;;22.53;59.47;101003.73;440042;119;923051;-77
2021/07/10 00:09:39;;;;;;;;;;;;;;;22.53;59.53;101002.91;440531;118;922718;-76
2021/07/10 00:10:43;;;;;;;;;;;;;;;22.53;59.51;100992.63;439940;118;921515;-77
2021/07/10 00:11:47;;;;;;;;;;;;;;;22.52;59.47;101004.02;440103;121;921473;-77
2021/07/10 00:12:50;;;;;;;;;;;;;;;22.51;59.41;101003.18;440714;119;921465;-77
2021/07/10 00:13:54;;;;;;;;;;;;;;;22.51;59.48;101002.34;440763;119;922677;-75
2021/07/10 00:14:57;;;;;;;;;;;;;;;22.50;59.50;100995.12;440741;118;923616;-79
2021/07/10 00:16:00;;;;;;;;;;;;;;;22.50;59.49;101000.67;440532;121;922689;-76
2021/07/10 00:17:04;;;;;;;;;;;;;;;22.50;59.54;101007.07;440758;114;922747;-78
2021/07/10 00:18:07;;;;;;;;;;;;;;;22.49;59.59;100999.04;440480;118;923539;-77
2021/07/10 00:19:11;;;;;;;;;;;;;;;22.49;59.54;100999.04;440010;118;922693;-78
2021/07/10 00:20:14;;;;;;;;;;;;;;;22.48;59.39;101000.98;440716;121;923044;-77
2021/07/10 00:21:18;;;;;;;;;;;;;;;22.48;59.38;101005.70;440146;121;922676;-78
2021/07/10 00:22:21;;;;;;;;;;;;;;;22.48;59.43;101002.92;440394;118;922668;-78
2021/07/10 00:23:25;;;;;;;;;;;;;;;22.46;59.45;101000.42;440350;121;922713;-75
2021/07/10 00:24:30;;;;;;;;;;;;;;;22.46;59.51;101003.20;440248;120;923055;-77
2021/07/10 00:25:33;;;;;;;;;;;;;;;22.46;59.54;101003.20;439945;120;922689;-77
2021/07/10 00:26:37;;;;;;;;;;;;;;;22.46;59.61;101008.76;439692;118;923189;-77
2021/07/10 00:27:40;;;;;;;;;;;;;;;22.46;59.74;101003.20;440166;118;923632;-77
2021/07/10 00:28:43;;;;;;;;;;;;;;;22.45;59.86;101001.53;440929;119;922516;-77
2021/07/10 00:29:46;;;;;;;;;;;;;;;22.44;59.86;100999.86;440556;121;922385;-76
2021/07/10 00:30:50;;;;;;;;;;;;;;;22.43;59.87;101007.39;433475;120;922357;-77
2021/07/10 00:31:54;;;;;;;;;;;;;;;22.43;59.81;101010.17;434099;119;922642;-76
2021/07/10 00:32:59;;;;;;;;;;;;;;;22.42;59.80;101004.89;441311;117;921645;-75
2021/07/10 00:34:03;;;;;;;;;;;;;;;22.41;59.81;101006.00;441056;119;922577;-77
2021/07/10 00:35:07;;;;;;;;;;;;;;;22.38;59.79;101001.83;440834;118;922681;-76
2021/07/10 00:36:10;;;;;;;;;;;;;;;22.36;59.88;101006.02;440245;118;923135;-78
2021/07/10 00:37:14;;;;;;;;;;;;;;;22.34;59.91;101005.46;440213;116;922816;-78
2021/07/10 00:38:17;;;;;;;;;;;;;;;22.31;59.94;101003.26;440535;119;922593;-78
2021/07/10 00:39:20;;;;;;;;;;;;;;;22.29;60.04;101000.75;440477;119;922723;-78
2021/07/10 00:40:25;;;;;;;;;;;;;;;22.28;60.22;101004.64;440063;118;921448;-78
2021/07/10 00:41:31;;;;;;;;;;;;;;;22.26;60.29;101000.50;439834;121;921820;-81
2021/07/10 00:42:35;;;;;;;;;;;;;;;22.24;60.43;100997.99;440761;119;921558;-77
2021/07/10 00:43:38;;;;;;;;;;;;;;;22.23;60.58;101001.05;438061;118;923144;-77
2021/07/10 00:44:41;;;;;;;;;;;;;;;22.22;60.74;101000.21;441005;118;922733;-78
2021/07/10 00:45:44;;;;;;;;;;;;;;;22.19;60.91;100998.02;439375;118;923265;-79
2021/07/10 00:46:48;;;;;;;;;;;;;;;22.19;61.04;100999.95;431164;121;923137;-78
2021/07/10 00:47:51;;;;;;;;;;;;;;;22.17;61.17;100997.45;431113;121;922686;-79
2021/07/10 00:48:55;;;;;;;;;;;;;;;22.16;61.32;100998.59;439543;118;922692;-78
2021/07/10 00:49:58;;;;;;;;;;;;;;;22.16;61.43;101001.36;439341;118;922667;-77
2021/07/10 00:51:01;;;;;;;;;;;;;;;22.16;61.52;101006.09;440115;118;922696;-78
2021/07/10 00:52:05;;;;;;;;;;;;;;;22.16;61.57;101003.31;440629;114;922689;-77
2021/07/10 00:53:08;;;;;;;;;;;;;;;22.14;61.66;101000.80;440394;119;922657;-77
2021/07/10 00:54:11;;;;;;;;;;;;;;;22.13;61.69;101001.08;439053;118;922765;-78
2021/07/10 00:55:15;;;;;;;;;;;;;;;22.11;61.72;101000.55;440224;118;922965;-77
2021/07/10 00:56:19;;;;;;;;;;;;;;;22.09;61.74;101006.37;439638;118;923829;-78
2021/07/10 00:57:22;;;;;;;;;;;;;;;22.08;61.82;100999.15;439428;118;922481;-78
2021/07/10 00:58:27;;;;;;;;;;;;;;;22.06;61.89;100995.81;440425;119;922642;-77
2021/07/10 00:59:31;;;;;;;;;;;;;;;22.04;62.01;100996.11;440107;118;922627;-77
2021/07/10 01:00:35;;;;;;;;;;;;;;;22.04;62.05;100995.28;440422;121;923149;-77
2021/07/10 01:01:39;;;;;;;;;;;;;;;22.02;62.13;100995.55;440474;120;922697;-77
2021/07/10 01:02:43;;;;;;;;;;;;;;;22.01;62.24;100999.44;439213;118;923189;-78
2021/07/10 01:03:47;;;;;;;;;;;;;;;22.01;62.37;100999.44;439818;118;922605;-79
2021/07/10 01:04:50;;;;;;;;;;;;;;;21.99;62.47;100995.29;440343;119;922829;-76
2021/07/10 01:05:53;;;;;;;;;;;;;;;21.97;62.63;101001.11;440091;119;923176;-78
2021/07/10 01:06:58;;;;;;;;;;;;;;;21.96;62.73;101001.38;431668;121;922664;-77
2021/07/10 01:08:02;;;;;;;;;;;;;;;21.95;62.86;100997.77;439949;118;922715;-77
2021/07/10 01:09:06;;;;;;;;;;;;;;;21.95;62.99;100999.72;440209;119;922738;-78
2021/07/10 01:10:11;;;;;;;;;;;;;;;21.96;63.17;101001.38;439685;119;922584;-77
2021/07/10 01:11:15;;;;;;;;;;;;;;;21.96;63.19;101004.16;439934;118;922373;-76
2021/07/10 01:12:18;;;;;;;;;;;;;;;21.95;63.23;100999.72;439365;118;922737;-76
2021/07/10 01:13:21;;;;;;;;;;;;;;;21.93;63.26;100999.98;440312;120;923123;-76
2021/07/10 01:14:25;;;;;;;;;;;;;;;21.91;63.33;100999.42;440408;119;922726;-79
2021/07/10 01:15:28;;;;;;;;;;;;;;;21.88;63.42;100994.44;433332;120;922631;-77
2021/07/10 01:16:32;;;;;;;;;;;;;;;21.87;63.51;101000.27;433237;120;923639;-77
2021/07/10 01:17:35;;;;;;;;;;;;;;;21.85;63.61;100994.98;440456;120;922637;-77
2021/07/10 01:18:38;;;;;;;;;;;;;;;21.83;63.68;101001.95;431557;122;922758;-77
2021/07/10 01:19:42;;;;;;;;;;;;;;;21.81;63.78;100988.34;439464;118;922731;-77
2021/07/10 01:20:49;;;;;;;;;;;;;;;21.80;63.88;100997.77;439525;118;923176;-77
2021/07/10 01:21:54;;;;;;;;;;;;;;;21.80;63.98;100996.94;440350;121;922701;-78
2021/07/10 01:22:57;;;;;;;;;;;;;;;21.80;64.04;100997.77;439910;118;921590;-77
2021/07/10 01:24:01;;;;;;;;;;;;;;;21.81;64.06;100993.89;440715;118;921464;-77
2021/07/10 01:25:06;;;;;;;;;;;;;;;21.82;64.08;100995.56;439573;118;922671;-78
2021/07/10 01:26:10;;;;;;;;;;;;;;;21.83;64.11;100996.39;439744;121;922266;-76
2021/07/10 01:27:13;;;;;;;;;;;;;;;21.84;64.12;100998.87;439560;119;921869;-77
2021/07/10 01:28:17;;;;;;;;;;;;;;;21.84;64.15;100998.87;438692;120;922545;-77
2021/07/10 01:29:20;;;;;;;;;;;;;;;21.85;64.12;101000.54;440099;118;922720;-77
2021/07/10 01:30:24;;;;;;;;;;;;;;;21.84;64.18;100998.03;441465;119;922689;-76
2021/07/10 01:31:28;;;;;;;;;;;;;;;21.84;64.20;101003.59;440153;118;923135;-76
2021/07/10 01:32:32;;;;;;;;;;;;;;;21.84;64.21;101009.97;439906;118;922707;-77
2021/07/10 01:33:36;;;;;;;;;;;;;;;21.83;64.19;101005.52;439953;118;923877;-77
2021/07/10 01:34:40;;;;;;;;;;;;;;;21.83;64.10;101002.75;440165;120;922643;-77
2021/07/10 01:35:44;;;;;;;;;;;;;;;21.83;64.09;101005.52;440169;119;922728;-76
2021/07/10 01:36:48;;;;;;;;;;;;;;;21.83;64.01;101002.75;440543;119;922652;-77
2021/07/10 01:37:52;;;;;;;;;;;;;;;21.81;63.95;101007.77;439590;118;922568;-76
2021/07/10 01:38:55;;;;;;;;;;;;;;;21.79;63.96;101011.92;440239;120;922672;-77
2021/07/10 01:39:58;;;;;;;;;;;;;;;21.75;64.02;101002.49;440317;120;922688;-77
2021/07/10 01:41:02;;;;;;;;;;;;;;;21.72;64.11;101003.90;439473;118;922518;-77
2021/07/10 01:42:05;;;;;;;;;;;;;;;21.70;64.20;101003.33;439138;118;922387;-77
2021/07/10 01:43:09;;;;;;;;;;;;;;;21.68;64.30;100997.22;440512;119;921385;-78
2021/07/10 01:44:12;;;;;;;;;;;;;;;21.67;64.34;101003.07;440393;119;921424;-77
2021/07/10 01:45:20;;;;;;;;;;;;;;;21.65;64.46;101008.89;440272;118;922663;-76
2021/07/10 01:46:23;;;;;;;;;;;;;;;21.63;64.47;101008.33;440064;121;922709;-76
2021/07/10 01:47:27;;;;;;;;;;;;;;;21.60;64.52;101001.41;440340;119;922680;-75
2021/07/10 01:48:30;;;;;;;;;;;;;;;21.59;64.54;100998.90;440878;120;922699;-76
2021/07/10 01:49:34;;;;;;;;;;;;;;;21.56;64.52;101007.76;439079;120;923149;-76
2021/07/10 01:50:37;;;;;;;;;;;;;;;21.53;64.54;101000.84;439772;118;922641;-76
2021/07/10 01:51:41;;;;;;;;;;;;;;;21.51;64.59;100999.44;439599;121;922717;-77
2021/07/10 01:52:44;;;;;;;;;;;;;;;21.50;64.63;101003.34;439750;120;922775;-75
2021/07/10 01:53:48;;;;;;;;;;;;;;;21.48;64.64;101000.00;440239;118;922684;-77
2021/07/10 01:54:51;;;;;;;;;;;;;;;21.47;64.62;100998.33;439858;118;923176;-77
2021/07/10 01:55:54;;;;;;;;;;;;;;;21.46;64.53;100999.44;441005;120;922719;-75
2021/07/10 01:56:58;;;;;;;;;;;;;;;21.45;64.52;101000.54;440012;118;921503;-78
2021/07/10 01:58:02;;;;;;;;;;;;;;;21.43;64.47;101000.84;440298;119;921555;-76
2021/07/10 01:59:05;;;;;;;;;;;;;;;21.41;64.44;101000.27;440236;118;921555;-77
2021/07/10 02:00:10;;;;;;;;;;;;;;;21.39;64.43;100991.38;440209;121;922687;-77
2021/07/10 02:01:14;;;;;;;;;;;;;;;21.41;64.46;100999.44;439524;121;923589;-77
2021/07/10 02:02:17;;;;;;;;;;;;;;;21.40;64.49;100994.99;431861;121;922704;-78
2021/07/10 02:03:20;;;;;;;;;;;;;;;21.40;64.50;100992.22;439761;114;923141;-76
2021/07/10 02:04:25;;;;;;;;;;;;;;;21.40;64.53;100994.99;440207;121;922676;-77
2021/07/10 02:05:28;;;;;;;;;;;;;;;21.38;64.56;101006.39;439891;118;923086;-75
2021/07/10 02:06:32;;;;;;;;;;;;;;;21.39;64.56;101005.25;439198;119;923152;-77
2021/07/10 02:07:35;;;;;;;;;;;;;;;21.39;64.62;101001.67;439285;121;922712;-77
2021/07/10 02:08:39;;;;;;;;;;;;;;;21.38;64.66;101006.39;440056;120;922582;-77
2021/07/10 02:09:42;;;;;;;;;;;;;;;21.38;64.69;101005.55;440228;120;922715;-76
2021/07/10 02:10:46;;;;;;;;;;;;;;;21.38;64.70;101000.00;440061;120;922720;-78
2021/07/10 02:11:51;;;;;;;;;;;;;;;21.35;64.66;101004.14;439334;120;922758;-78
2021/07/10 02:12:56;;;;;;;;;;;;;;;21.36;64.67;101002.20;439967;118;923587;-77
2021/07/10 02:14:00;;;;;;;;;;;;;;;21.36;64.64;101007.76;439911;121;923795;-77
2021/07/10 02:15:10;;;;;;;;;;;;;;;21.36;64.66;101007.76;440235;119;923211;-76
2021/07/10 02:16:15;;;;;;;;;;;;;;;21.36;64.64;101002.20;439735;118;922690;-77
2021/07/10 02:17:18;;;;;;;;;;;;;;;21.36;64.63;101008.59;440600;121;922546;-76
2021/07/10 02:18:22;;;;;;;;;;;;;;;21.37;64.65;101007.48;440758;120;922555;-76
2021/07/10 02:19:25;;;;;;;;;;;;;;;21.38;64.66;101005.55;440998;118;922002;-76
2021/07/10 02:20:28;;;;;;;;;;;;;;;21.38;64.66;101009.16;441468;118;922413;-77
2021/07/10 02:21:32;;;;;;;;;;;;;;;21.39;64.61;101001.67;441303;120;922510;-76
2021/07/10 02:22:35;;;;;;;;;;;;;;;21.37;64.65;101007.48;440332;121;922434;-77
2021/07/10 02:23:38;;;;;;;;;;;;;;;21.38;64.56;101006.39;440610;118;923186;-78
2021/07/10 02:24:41;;;;;;;;;;;;;;;21.37;64.58;101003.88;441092;118;922730;-77
2021/07/10 02:25:45;;;;;;;;;;;;;;;21.37;64.61;101006.66;439808;118;922602;-78
2021/07/10 02:26:49;;;;;;;;;;;;;;;21.38;64.70;100997.23;439501;118;921461;-77
2021/07/10 02:27:52;;;;;;;;;;;;;;;21.39;64.76;100998.91;438616;118;922737;-77
2021/07/10 02:28:56;;;;;;;;;;;;;;;21.39;64.71;100998.91;439489;118;922652;-76
2021/07/10 02:29:59;;;;;;;;;;;;;;;21.39;64.60;100999.70;440270;121;922712;-76
2021/07/10 02:31:02;;;;;;;;;;;;;;;21.37;64.58;100993.63;440690;120;922729;-75
2021/07/10 02:32:06;;;;;;;;;;;;;;;21.35;64.58;101000.54;439528;120;922450;-77
2021/07/10 02:33:09;;;;;;;;;;;;;;;21.32;64.60;101007.48;439383;114;922589;-77
2021/07/10 02:34:13;;;;;;;;;;;;;;;21.29;64.66;101002.47;431761;123;923146;-77
2021/07/10 02:35:16;;;;;;;;;;;;;;;21.27;64.71;101001.94;431882;123;922978;-76
2021/07/10 02:36:21;;;;;;;;;;;;;;;21.27;64.75;101003.88;440266;118;921770;-77
2021/07/10 02:37:25;;;;;;;;;;;;;;;21.27;64.74;100998.33;439512;118;921550;-77
2021/07/10 02:38:28;;;;;;;;;;;;;;;21.27;64.80;100998.33;440353;119;921993;-77
2021/07/10 02:39:31;;;;;;;;;;;;;;;21.26;64.87;101002.20;440087;121;921954;-76
2021/07/10 02:40:36;;;;;;;;;;;;;;;21.23;64.95;101004.41;439993;119;922685;-78
2021/07/10 02:41:40;;;;;;;;;;;;;;;21.23;64.98;101002.77;438409;118;922700;-78
2021/07/10 02:42:43;;;;;;;;;;;;;;;21.23;65.02;101002.77;439520;118;922773;-76
2021/07/10 02:43:46;;;;;;;;;;;;;;;21.23;65.09;101002.77;440394;121;921334;-78
2021/07/10 02:44:49;;;;;;;;;;;;;;;21.23;65.24;101009.12;440321;120;921462;-78
2021/07/10 02:45:53;;;;;;;;;;;;;;;21.24;65.48;100999.70;440536;118;921445;-78
2021/07/10 02:46:57;;;;;;;;;;;;;;;21.27;65.63;101004.71;440640;120;921496;-76
2021/07/10 02:48:01;;;;;;;;;;;;;;;21.31;65.75;101005.81;439487;119;921516;-76
2021/07/10 02:49:04;;;;;;;;;;;;;;;21.34;65.79;101004.41;438718;121;922700;-77
2021/07/10 02:50:09;;;;;;;;;;;;;;;21.37;65.77;101006.66;438982;118;922653;-75
2021/07/10 02:51:12;;;;;;;;;;;;;;;21.39;65.65;101010.80;439824;118;922875;-76
2021/07/10 02:52:16;;;;;;;;;;;;;;;21.42;65.47;101001.94;439743;121;922641;-76
2021/07/10 02:53:19;;;;;;;;;;;;;;;21.46;65.20;100999.44;440473;116;923181;-77
2021/07/10 02:54:22;;;;;;;;;;;;;;;21.49;64.97;101001.67;439735;118;922558;-77
2021/07/10 02:55:25;;;;;;;;;;;;;;;21.52;64.82;101006.66;440070;118;923129;-77
2021/07/10 02:56:29;;;;;;;;;;;;;;;21.54;64.71;101002.51;439333;121;922676;-77
2021/07/10 02:57:32;;;;;;;;;;;;;;;21.57;64.59;100998.33;431112;122;922523;-78
2021/07/10 02:58:35;;;;;;;;;;;;;;;21.59;64.49;100996.95;440092;118;922543;-77
2021/07/10 02:59:40;;;;;;;;;;;;;;;21.63;64.36;101003.61;439973;118;922674;-77
2021/07/10 03:00:44;;;;;;;;;;;;;;;21.64;64.39;101004.45;439943;119;922371;-77
2021/07/10 03:01:48;;;;;;;;;;;;;;;21.64;64.47;100999.73;440912;118;922653;-77
2021/07/10 03:02:51;;;;;;;;;;;;;;;21.64;64.49;101010.83;439983;118;923131;-77
2021/07/10 03:03:55;;;;;;;;;;;;;;;21.64;64.58;101004.45;439875;118;922646;-77
2021/07/10 03:04:58;;;;;;;;;;;;;;;21.64;64.66;101005.28;439815;118;922687;-78
2021/07/10 03:06:02;;;;;;;;;;;;;;;21.66;64.64;101005.01;440381;118;922669;-77
2021/07/10 03:07:05;;;;;;;;;;;;;;;21.66;64.60;101002.23;440255;118;922708;-76
2021/07/10 03:08:08;;;;;;;;;;;;;;;21.68;64.47;101008.32;439716;118;922671;-77
2021/07/10 03:09:12;;;;;;;;;;;;;;;21.69;64.21;101009.98;431475;121;923948;-78
2021/07/10 03:10:16;;;;;;;;;;;;;;;21.72;64.05;101009.45;428747;124;923202;-78
2021/07/10 03:11:20;;;;;;;;;;;;;;;21.75;63.85;101005.27;428020;122;923100;-77
2021/07/10 03:12:24;;;;;;;;;;;;;;;21.78;63.71;101008.31;428075;122;922720;-78
2021/07/10 03:13:27;;;;;;;;;;;;;;;21.80;63.51;101008.88;428222;122;922141;-75
2021/07/10 03:14:31;;;;;;;;;;;;;;;21.81;63.36;101013.32;432207;123;922794;-77
2021/07/10 03:15:34;;;;;;;;;;;;;;;21.83;63.26;101008.30;431449;121;922415;-76
2021/07/10 03:16:39;;;;;;;;;;;;;;;21.85;63.20;101006.09;441412;118;922379;-76
2021/07/10 03:17:46;;;;;;;;;;;;;;;21.87;63.17;101003.88;439096;118;922665;-76
2021/07/10 03:18:49;;;;;;;;;;;;;;;21.90;63.06;101005.25;441159;120;922968;-78
2021/07/10 03:19:53;;;;;;;;;;;;;;;21.91;63.00;100998.59;439803;121;923172;-77
2021/07/10 03:20:57;;;;;;;;;;;;;;;21.92;62.98;101000.26;439869;118;924199;-77
2021/07/10 03:22:00;;;;;;;;;;;;;;;21.94;62.92;100998.88;440137;118;922351;-77
2021/07/10 03:23:03;;;;;;;;;;;;;;;21.94;62.87;101001.66;439929;121;922666;-77
2021/07/10 03:24:07;;;;;;;;;;;;;;;21.94;62.88;101004.44;439657;120;922697;-77
2021/07/10 03:25:11;;;;;;;;;;;;;;;21.93;62.92;101008.31;440352;118;922797;-77
2021/07/10 03:26:14;;;;;;;;;;;;;;;21.95;62.98;101006.11;440297;118;922736;-77
2021/07/10 03:27:17;;;;;;;;;;;;;;;21.95;63.03;101006.11;439382;121;922698;-76
2021/07/10 03:28:21;;;;;;;;;;;;;;;21.96;63.10;101006.94;439996;121;921897;-76
2021/07/10 03:29:24;;;;;;;;;;;;;;;21.97;63.12;101003.89;440358;118;921511;-76
2021/07/10 03:30:28;;;;;;;;;;;;;;;21.98;63.07;101013.89;440200;118;922693;-75
2021/07/10 03:31:31;;;;;;;;;;;;;;;21.99;63.01;101010.01;440289;121;922713;-78
2021/07/10 03:32:34;;;;;;;;;;;;;;;22.01;62.91;101006.93;440149;119;922705;-77
2021/07/10 03:33:38;;;;;;;;;;;;;;;22.02;62.89;101014.98;440147;119;922628;-77
2021/07/10 03:34:41;;;;;;;;;;;;;;;22.03;62.84;101013.88;432973;119;923098;-77
2021/07/10 03:35:45;;;;;;;;;;;;;;;22.05;62.85;101016.39;432307;120;923191;-76
2021/07/10 03:36:48;;;;;;;;;;;;;;;22.05;62.85;101008.86;439817;121;922676;-77
2021/07/10 03:37:52;;;;;;;;;;;;;;;22.08;62.92;101012.20;439718;119;922697;-77
2021/07/10 03:38:55;;;;;;;;;;;;;;;22.07;62.90;101005.81;439702;118;922678;-77
2021/07/10 03:39:58;;;;;;;;;;;;;;;22.07;62.77;101004.97;440391;121;924074;-76
2021/07/10 03:41:02;;;;;;;;;;;;;;;22.08;62.76;101006.64;439890;121;922750;-77
2021/07/10 03:42:05;;;;;;;;;;;;;;;22.09;62.73;101013.88;439760;118;922759;-77
2021/07/10 03:43:09;;;;;;;;;;;;;;;22.09;62.75;101011.92;439768;118;922749;-77
2021/07/10 03:44:12;;;;;;;;;;;;;;;22.11;62.75;101006.10;440319;119;923439;-77
2021/07/10 03:45:16;;;;;;;;;;;;;;;22.12;62.78;101010.52;440484;119;924162;-77
2021/07/10 03:46:21;;;;;;;;;;;;;;;22.12;62.85;101011.35;440012;120;922702;-78
2021/07/10 03:47:25;;;;;;;;;;;;;;;22.13;62.96;101006.63;423828;123;922754;-77
2021/07/10 03:48:28;;;;;;;;;;;;;;;22.14;62.97;101005.52;429078;122;923045;-77
2021/07/10 03:49:32;;;;;;;;;;;;;;;22.15;62.93;101004.42;433867;121;921546;-78
2021/07/10 03:50:36;;;;;;;;;;;;;;;22.17;63.01;101004.95;434210;120;922764;-78
2021/07/10 03:51:39;;;;;;;;;;;;;;;22.18;63.08;101009.39;440520;118;922676;-77
2021/07/10 03:52:42;;;;;;;;;;;;;;;22.21;63.14;101008.85;440300;118;922698;-74
2021/07/10 03:53:45;;;;;;;;;;;;;;;22.22;62.30;101007.74;440276;119;922763;-78
2021/07/10 03:54:49;;;;;;;;;;;;;;;22.25;62.01;101009.94;440118;119;922980;-78
2021/07/10 03:55:52;;;;;;;;;;;;;;;22.27;61.81;101005.78;439774;118;922694;-76
2021/07/10 03:56:55;;;;;;;;;;;;;;;22.30;61.55;101013.54;431170;121;922675;-76
2021/07/10 03:58:01;;;;;;;;;;;;;;;22.32;61.60;101008.55;430697;121;922390;-77
2021/07/10 03:59:04;;;;;;;;;;;;;;;22.35;61.62;101007.97;440119;118;922867;-77
2021/07/10 04:00:10;;;;;;;;;;;;;;;22.39;61.65;101005.44;440420;118;923714;-77
2021/07/10 04:01:13;;;;;;;;;;;;;;;22.41;61.72;100997.66;440005;121;923163;-77
2021/07/10 04:02:16;;;;;;;;;;;;;;;22.43;61.85;101007.39;440811;119;923090;-76
2021/07/10 04:03:19;;;;;;;;;;;;;;;22.45;61.91;101005.14;439930;119;921475;-77
2021/07/10 04:04:22;;;;;;;;;;;;;;;22.48;61.56;101009.32;440389;118;922638;-77
2021/07/10 04:05:26;;;;;;;;;;;;;;;22.51;61.35;100999.56;439969;118;923417;-78
2021/07/10 04:06:29;;;;;;;;;;;;;;;22.53;61.27;101002.91;440550;121;921948;-75
2021/07/10 04:07:33;;;;;;;;;;;;;;;22.56;61.25;101000.38;440809;118;922158;-78
2021/07/10 04:08:36;;;;;;;;;;;;;;;22.59;61.27;101004.55;439495;118;921931;-76
2021/07/10 04:09:39;;;;;;;;;;;;;;;22.62;61.22;101003.97;440376;118;922586;-78
2021/07/10 04:10:43;;;;;;;;;;;;;;;22.64;61.00;100996.19;441039;118;922227;-77
2021/07/10 04:11:47;;;;;;;;;;;;;;;22.66;60.80;101000.33;440365;120;924389;-76
2021/07/10 04:12:50;;;;;;;;;;;;;;;22.69;60.58;100998.94;439303;118;923131;-75
2021/07/10 04:13:54;;;;;;;;;;;;;;;22.72;60.54;100999.22;439944;118;922781;-78
2021/07/10 04:15:00;;;;;;;;;;;;;;;22.74;60.47;100997.00;439852;119;923155;-76
2021/07/10 04:16:04;;;;;;;;;;;;;;;22.77;60.46;101001.17;440457;118;922701;-77
2021/07/10 04:17:07;;;;;;;;;;;;;;;22.79;60.51;100996.14;440091;118;922622;-77
2021/07/10 04:18:11;;;;;;;;;;;;;;;22.81;60.52;101003.09;434476;120;923132;-78
2021/07/10 04:19:14;;;;;;;;;;;;;;;22.83;60.52;100998.05;426086;121;922757;-75
2021/07/10 04:20:18;;;;;;;;;;;;;;;22.86;60.58;100999.45;440907;119;924126;-77
2021/07/10 04:21:22;;;;;;;;;;;;;;;22.88;60.50;100993.61;433867;120;922732;-76
2021/07/10 04:22:26;;;;;;;;;;;;;;;22.90;60.54;100994.13;433306;121;922745;-77
2021/07/10 04:23:29;;;;;;;;;;;;;;;22.93;60.52;100990.80;440603;121;922701;-77
2021/07/10 04:24:32;;;;;;;;;;;;;;;22.95;60.52;100996.88;439790;119;922744;-77
2021/07/10 04:25:36;;;;;;;;;;;;;;;22.96;60.59;100992.98;439686;118;922719;-77
2021/07/10 04:26:42;;;;;;;;;;;;;;;22.98;60.47;100991.60;440363;118;921578;-77
2021/07/10 04:27:45;;;;;;;;;;;;;;;23.01;60.38;100995.73;439358;119;921994;-77
2021/07/10 04:28:49;;;;;;;;;;;;;;;23.03;60.30;100999.08;439830;119;921659;-76
2021/07/10 04:29:52;;;;;;;;;;;;;;;23.04;60.25;100989.62;440259;118;921500;-79
2021/07/10 04:30:55;;;;;;;;;;;;;;;23.06;60.10;100996.54;440505;118;921494;-77
2021/07/10 04:31:58;;;;;;;;;;;;;;;23.09;60.12;100995.14;425314;125;921454;-77
2021/07/10 04:33:02;;;;;;;;;;;;;;;23.11;60.15;100995.67;427790;124;921585;-79
2021/07/10 04:34:05;;;;;;;;;;;;;;;23.14;60.24;100995.95;427736;122;921744;-76
2021/07/10 04:35:09;;;;;;;;;;;;;;;23.16;60.32;101001.20;430218;122;921523;-77
2021/07/10 04:36:13;;;;;;;;;;;;;;;23.18;60.33;100993.41;440685;120;922578;-76
2021/07/10 04:37:16;;;;;;;;;;;;;;;23.20;60.34;100993.95;439962;119;922610;-76
2021/07/10 04:38:20;;;;;;;;;;;;;;;23.21;60.34;101001.99;441062;118;922529;-76
2021/07/10 04:39:24;;;;;;;;;;;;;;;23.23;60.25;100994.20;440370;118;921463;-76
2021/07/10 04:40:27;;;;;;;;;;;;;;;23.26;60.10;100996.42;439621;120;923152;-76
2021/07/10 04:41:30;;;;;;;;;;;;;;;23.28;59.92;100996.95;431334;121;922564;-77
2021/07/10 04:42:34;;;;;;;;;;;;;;;23.31;60.10;100998.33;432900;119;923236;-78
2021/07/10 04:43:38;;;;;;;;;;;;;;;23.34;60.10;101000.52;439800;120;921619;-77
2021/07/10 04:44:42;;;;;;;;;;;;;;;23.36;60.11;100997.45;440534;119;922731;-77
2021/07/10 04:45:46;;;;;;;;;;;;;;;23.38;60.10;100996.03;440880;119;922688;-78
2021/07/10 04:46:50;;;;;;;;;;;;;;;23.39;59.91;100994.92;441158;117;921590;-78
2021/07/10 04:47:53;;;;;;;;;;;;;;;23.42;59.94;100986.00;439608;118;923650;-78
2021/07/10 04:48:56;;;;;;;;;;;;;;;23.44;59.88;100994.04;440780;118;922632;-78
2021/07/10 04:50:00;;;;;;;;;;;;;;;23.46;59.96;100998.24;440798;119;922677;-78
2021/07/10 04:51:03;;;;;;;;;;;;;;;23.48;60.01;100984.05;425159;123;922702;-77
2021/07/10 04:52:07;;;;;;;;;;;;;;;23.50;60.08;100988.18;426030;123;922692;-78
2021/07/10 04:53:10;;;;;;;;;;;;;;;23.52;59.90;100983.17;440984;120;923120;-77
2021/07/10 04:54:13;;;;;;;;;;;;;;;23.56;59.60;100986.19;440708;121;922745;-76
2021/07/10 04:55:17;;;;;;;;;;;;;;;23.57;59.21;100988.69;440428;118;922875;-78
2021/07/10 04:56:21;;;;;;;;;;;;;;;23.60;59.04;100974.17;440412;121;922558;-77
2021/07/10 04:57:24;;;;;;;;;;;;;;;23.63;58.99;100981.12;440116;121;922874;-76
2021/07/10 04:58:28;;;;;;;;;;;;;;;23.65;58.80;100981.67;439681;120;922631;-79
2021/07/10 04:59:31;;;;;;;;;;;;;;;23.67;58.68;100984.98;440137;118;922769;-77
2021/07/10 05:00:35;;;;;;;;;;;;;;;23.71;58.72;100985.24;441253;118;922744;-78
2021/07/10 05:01:38;;;;;;;;;;;;;;;23.72;58.75;100989.66;441610;119;922101;-77
2021/07/10 05:02:42;;;;;;;;;;;;;;;23.75;58.79;100986.31;440894;120;922236;-77
2021/07/10 05:03:46;;;;;;;;;;;;;;;23.77;58.13;100984.05;441729;118;922638;-78
2021/07/10 05:04:49;;;;;;;;;;;;;;;23.79;58.06;100976.23;432638;120;922580;-78
2021/07/10 05:05:52;;;;;;;;;;;;;;;23.82;57.40;100984.02;440611;119;922426;-79
2021/07/10 05:06:56;;;;;;;;;;;;;;;23.85;57.37;100983.42;432981;123;922687;-78
2021/07/10 05:08:01;;;;;;;;;;;;;;;23.88;57.31;100982.83;432668;121;922655;-77
2021/07/10 05:09:04;;;;;;;;;;;;;;;23.89;57.20;100981.70;439951;118;923331;-78
2021/07/10 05:10:08;;;;;;;;;;;;;;;23.92;57.17;100979.19;440590;120;922717;-77
2021/07/10 05:11:11;;;;;;;;;;;;;;;23.94;57.06;100979.70;440443;120;923085;-78
2021/07/10 05:12:16;;;;;;;;;;;;;;;23.96;57.22;100977.46;439858;118;922683;-77
2021/07/10 05:13:19;;;;;;;;;;;;;;;23.99;57.14;100976.03;440097;118;923057;-78
2021/07/10 05:14:23;;;;;;;;;;;;;;;24.03;57.06;100985.48;440632;119;922281;-77
2021/07/10 05:15:27;;;;;;;;;;;;;;;24.04;57.01;100976.80;440907;121;922695;-78
2021/07/10 05:16:31;;;;;;;;;;;;;;;24.08;56.93;100982.64;440746;119;922786;-78
2021/07/10 05:17:34;;;;;;;;;;;;;;;24.10;56.51;100983.15;441026;118;922715;-77
2021/07/10 05:18:39;;;;;;;;;;;;;;;24.12;56.40;100978.12;439987;120;921503;-78
2021/07/10 05:19:43;;;;;;;;;;;;;;;24.15;56.40;100990.66;440765;119;922635;-78
2021/07/10 05:20:47;;;;;;;;;;;;;;;24.17;56.40;100986.42;440556;119;923018;-79
2021/07/10 05:21:50;;;;;;;;;;;;;;;24.20;56.38;100980.31;440470;118;922735;-78
2021/07/10 05:22:53;;;;;;;;;;;;;;;24.22;56.33;100978.04;440722;118;923585;-79